Time;durP1;ratioP1;P1;durP2;ratioP2;P2;SDS_P1;SDS_P2;PMS_P1;PMS_P2;Temp;Humidity;BMP_temperature;BMP_pressure;BME280_temperature;BME280_humidity;BME280_pressure;Samples;Min_cycle;Max_cycle;Signal;HPM_P1;HPM_P2
2023/03/21 00:00:25;;;;;;;9.60;4.20;;;;;;;13.63;54.28;64388.59;5032289;28;20214;-57
2023/03/21 00:02:51;;;;;;;5.70;4.13;;;;;;;13.57;54.94;64382.56;5032124;28;20701;-57
2023/03/21 00:05:19;;;;;;;7.65;4.22;;;;;;;13.66;55.12;64389.34;5014345;28;20305;-57
2023/03/21 00:07:45;;;;;;;9.55;4.65;;;;;;;13.60;54.78;64380.22;5031682;28;20190;-58
2023/03/21 00:10:10;;;;;;;5.88;4.22;;;;;;;13.61;56.30;64383.88;5031890;28;20206;-58
2023/03/21 00:12:36;;;;;;;6.80;4.90;;;;;;;13.53;55.58;64375.09;5031665;28;20220;-57
2023/03/21 00:15:06;;;;;;;7.03;4.38;;;;;;;13.53;56.02;64375.09;5031707;28;20206;-58
2023/03/21 00:17:32;;;;;;;6.30;4.25;;;;;;;13.48;55.42;64370.13;5031357;28;20218;-60
2023/03/21 00:19:59;;;;;;;5.55;4.30;;;;;;;13.58;54.50;64383.09;5031545;28;20655;-59
2023/03/21 00:22:26;;;;;;;8.07;4.28;;;;;;;13.51;55.49;64372.88;5031644;28;20196;-59
2023/03/21 00:24:52;;;;;;;9.45;4.60;;;;;;;13.65;54.31;64390.78;5031760;28;20213;-56
2023/03/21 00:27:21;;;;;;;7.40;5.05;;;;;;;13.29;55.05;64349.81;5031219;28;20186;-57
2023/03/21 00:29:48;;;;;;;9.43;5.10;;;;;;;13.20;57.09;64342.50;5031670;28;20202;-62
2023/03/21 00:32:14;;;;;;;14.50;6.80;;;;;;;12.84;57.07;64302.41;5031277;28;20190;-59
2023/03/21 00:34:41;;;;;;;10.43;7.32;;;;;;;12.97;57.23;64319.75;5013673;28;20210;-61
2023/03/21 00:37:07;;;;;;;13.23;7.73;;;;;;;12.64;57.12;64281.03;5031326;28;20182;-58
2023/03/21 00:39:34;;;;;;;15.18;7.85;;;;;;;12.56;57.99;64272.25;5031255;28;20238;-56
2023/03/21 00:42:00;;;;;;;15.13;8.75;;;;;;;12.48;58.13;64263.47;5031145;28;20185;-56
2023/03/21 00:44:25;;;;;;;15.27;8.57;;;;;;;12.61;58.34;64275.75;5031575;28;20202;-58
2023/03/21 00:46:51;;;;;;;20.17;9.80;;;;;;;12.35;58.33;64246.69;5031378;28;20637;-61
2023/03/21 00:49:19;;;;;;;21.58;11.07;;;;;;;12.44;58.79;64259.09;5031360;28;20214;-58
2023/03/21 00:51:44;;;;;;;21.83;11.10;;;;;;;12.45;58.97;64260.19;5031049;28;20190;-57
2023/03/21 00:54:11;;;;;;;25.20;13.05;;;;;;;12.41;59.25;64251.28;5031006;28;20236;-57
2023/03/21 00:56:36;;;;;;;18.33;11.95;;;;;;;12.30;59.50;64244.28;5030859;28;20192;-56
2023/03/21 00:59:02;;;;;;;21.33;12.83;;;;;;;12.19;59.80;64232.22;5030975;28;20221;-57
2023/03/21 01:01:30;;;;;;;24.77;13.23;;;;;;;12.21;60.08;64233.88;5030836;28;20225;-57
2023/03/21 01:04:04;;;;;;;21.00;13.23;;;;;;;12.11;60.55;64223.44;5030829;28;20249;-59
2023/03/21 01:06:31;;;;;;;22.60;12.68;;;;;;;12.04;61.05;64212.72;5030679;28;20218;-59
2023/03/21 01:08:57;;;;;;;21.37;11.70;;;;;;;12.29;62.12;64242.63;5030983;28;20210;-61
2023/03/21 01:11:25;;;;;;;24.20;13.83;;;;;;;12.35;60.84;64247.25;5030825;28;20194;-60
2023/03/21 01:13:51;;;;;;;24.92;13.73;;;;;;;12.44;60.21;64261.63;5038049;22;20307;-60
2023/03/21 01:16:17;;;;;;;21.05;12.27;;;;;;;12.41;60.32;64255.78;5030625;28;20637;-60
2023/03/21 01:18:42;;;;;;;23.80;13.23;;;;;;;12.51;62.16;64264.22;5030384;28;20210;-61
2023/03/21 01:21:12;;;;;;;29.90;13.27;;;;;;;12.53;61.39;64268.94;5030278;28;20794;-57
2023/03/21 01:23:39;;;;;;;19.88;12.73;;;;;;;12.57;60.66;64271.38;5029881;28;20651;-56
2023/03/21 01:26:06;;;;;;;20.13;12.48;;;;;;;12.70;58.82;64284.53;5030642;28;20333;-60
2023/03/21 01:28:35;;;;;;;19.33;11.47;;;;;;;12.47;59.19;64262.38;5030761;28;20221;-58
2023/03/21 01:31:03;;;;;;;17.65;12.18;;;;;;;12.53;58.73;64268.94;5030526;28;20194;-61
2023/03/21 01:33:32;;;;;;;20.25;11.23;;;;;;;12.38;59.13;64250.53;5030486;28;20269;-60
2023/03/21 01:35:58;;;;;;;23.33;12.70;;;;;;;12.44;58.75;64259.09;5030500;28;20285;-61
2023/03/21 01:38:24;;;;;;;18.23;11.53;;;;;;;12.29;60.27;64240.66;5030540;28;20356;-62
2023/03/21 01:40:50;;;;;;;19.92;11.95;;;;;;;12.09;61.01;64220.72;5030313;28;20220;-63
2023/03/21 01:43:26;;;;;;;20.57;12.27;;;;;;;11.75;61.04;64182.03;5030222;28;20182;-60
2023/03/21 01:46:20;;;;;;;18.48;11.57;;;;;;;11.77;61.41;64186.75;5030206;28;20210;-60
2023/03/21 01:48:49;;;;;;;20.13;11.83;;;;;;;11.75;61.60;64182.03;5030585;28;20632;-57
2023/03/21 01:51:14;;;;;;;19.33;11.93;;;;;;;11.69;61.67;64177.97;5030163;28;20199;-57
2023/03/21 01:53:41;;;;;;;22.33;12.27;;;;;;;11.67;61.71;64172.69;5030264;28;20265;-57
2023/03/21 01:56:23;;;;;;;20.27;10.93;;;;;;;11.65;61.96;64173.00;5030185;28;20198;-57
2023/03/21 01:58:51;;;;;;;23.50;12.17;;;;;;;11.62;62.07;64167.19;5030196;28;20220;-58
2023/03/21 02:01:17;;;;;;;18.73;10.83;;;;;;;11.53;61.71;64159.88;5030022;28;20194;-58
2023/03/21 02:03:49;;;;;;;18.90;11.00;;;;;;;11.60;61.98;64168.06;5029885;28;20687;-59
2023/03/21 02:06:30;;;;;;;15.80;11.00;;;;;;;11.46;62.15;64152.19;5030077;28;20257;-61
2023/03/21 02:09:03;;;;;;;22.70;12.37;;;;;;;11.65;62.46;64170.50;5028813;28;20672;-61
2023/03/21 02:11:31;;;;;;;16.83;11.27;;;;;;;11.66;61.79;64172.16;5030035;28;20560;-61
2023/03/21 02:13:56;;;;;;;20.93;11.00;;;;;;;11.73;61.50;64179.84;5030207;28;20276;-60
2023/03/21 02:16:40;;;;;;;18.57;10.87;;;;;;;11.66;61.37;64174.69;5030348;28;20191;-56
2023/03/21 02:19:09;;;;;;;16.03;10.27;;;;;;;11.69;62.45;64175.44;5033616;28;20218;-57
2023/03/21 02:21:34;;;;;;;17.17;10.07;;;;;;;11.91;61.13;64200.97;5033315;28;20337;-56
2023/03/21 02:24:32;;;;;;;18.57;10.07;;;;;;;11.73;61.08;64182.34;5033126;28;20252;-57
2023/03/21 02:27:12;;;;;;;15.00;9.73;;;;;;;11.68;60.87;64173.78;4993171;28;20202;-57
2023/03/21 02:30:03;;;;;;;18.47;10.80;;;;;;;11.71;61.27;64180.16;5033141;28;20206;-56
2023/03/21 02:33:02;;;;;;;18.03;10.10;;;;;;;11.88;61.12;64195.16;5033166;28;20190;-61
2023/03/21 02:35:48;;;;;;;16.40;9.97;;;;;;;11.82;60.56;64191.13;5033554;28;20229;-57
2023/03/21 02:38:23;;;;;;;16.53;9.73;;;;;;;11.77;60.92;64183.66;5033025;28;20279;-58
2023/03/21 02:40:58;;;;;;;14.03;9.03;;;;;;;11.80;62.79;64190.00;5033142;28;20699;-59
2023/03/21 02:43:55;;;;;;;19.03;10.07;;;;;;;11.98;61.29;64206.13;5032994;28;20232;-60
2023/03/21 02:46:27;;;;;;;18.70;10.67;;;;;;;12.03;60.97;64214.13;5032102;28;20220;-57
2023/03/21 02:49:08;;;;;;;17.65;11.50;;;;;;;12.11;60.22;64223.44;5033030;28;20222;-61
2023/03/21 02:51:38;;;;;;;13.27;9.80;;;;;;;12.04;61.04;64215.78;5032975;28;20198;-61
2023/03/21 02:54:09;;;;;;;11.23;8.52;;;;;;;12.15;61.74;64227.28;5033080;28;20786;-60
2023/03/21 02:56:36;;;;;;;17.40;9.80;;;;;;;12.17;60.73;64229.47;5032721;28;20273;-61
2023/03/21 02:59:04;;;;;;;14.70;9.43;;;;;;;12.22;61.08;64234.97;5032920;28;20225;-61
2023/03/21 03:01:31;;;;;;;17.08;10.07;;;;;;;12.38;59.77;64253.03;5032815;28;20193;-60
2023/03/21 03:03:56;;;;;;;19.10;10.20;;;;;;;12.25;60.70;64235.72;5032680;28;20209;-61
2023/03/21 03:06:26;;;;;;;15.98;9.60;;;;;;;12.10;61.68;64219.28;5032610;28;20722;-61
2023/03/21 03:09:22;;;;;;;16.03;10.13;;;;;;;12.02;61.48;64210.53;5032793;28;20308;-60
2023/03/21 03:11:54;;;;;;;18.10;9.73;;;;;;;11.96;61.57;64206.47;5032734;28;20210;-61
2023/03/21 03:14:30;;;;;;;19.23;9.97;;;;;;;12.10;60.51;64221.81;5032565;28;20256;-58
2023/03/21 03:17:28;;;;;;;18.40;10.40;;;;;;;12.05;60.09;64213.78;5032492;28;20194;-59
2023/03/21 03:20:09;;;;;;;13.97;9.43;;;;;;;11.91;61.25;64199.00;5032903;28;20622;-59
2023/03/21 03:22:45;;;;;;;18.73;11.00;;;;;;;11.83;61.73;64192.75;5032520;28;20304;-60
2023/03/21 03:25:18;;;;;;;21.00;10.98;;;;;;;11.86;61.72;64196.03;5032536;28;20233;-61
2023/03/21 03:27:47;;;;;;;20.55;10.38;;;;;;;11.86;61.30;64195.50;5014247;28;20676;-58
2023/03/21 03:30:13;;;;;;;18.75;11.30;;;;;;;11.86;62.16;64192.97;5032198;28;20198;-59
2023/03/21 03:32:53;;;;;;;19.03;11.37;;;;;;;11.97;62.05;64205.03;5014434;28;20558;-59
2023/03/21 03:35:21;;;;;;;17.50;11.53;;;;;;;11.86;61.78;64193.50;5032189;28;20206;-58
2023/03/21 03:37:54;;;;;;;15.33;9.97;;;;;;;11.84;61.71;64190.78;5031940;28;20218;-61
2023/03/21 03:40:45;;;;;;;17.83;10.38;;;;;;;11.91;60.93;64201.53;5032599;28;20341;-61
2023/03/21 03:43:21;;;;;;;12.60;9.20;;;;;;;11.78;61.17;64185.31;5032303;28;20344;-61
2023/03/21 03:45:52;;;;;;;14.13;10.03;;;;;;;11.78;61.59;64185.31;5031922;28;20710;-60
2023/03/21 03:48:18;;;;;;;13.50;9.30;;;;;;;11.83;60.81;64195.28;5031838;28;20186;-60
2023/03/21 03:50:52;;;;;;;15.07;9.90;;;;;;;11.69;61.56;64174.91;5014102;28;20570;-61
2023/03/21 03:53:27;;;;;;;14.27;9.43;;;;;;;11.48;62.35;64154.94;5031797;28;20193;-60
2023/03/21 03:55:55;;;;;;;17.20;9.60;;;;;;;11.52;61.61;64159.31;5031851;28;20312;-59
2023/03/21 03:58:23;;;;;;;14.45;9.32;;;;;;;11.29;62.82;64134.09;5031621;28;20217;-56
2023/03/21 04:00:50;;;;;;;18.17;10.00;;;;;;;11.44;63.08;64150.00;5031752;28;20846;-57
2023/03/21 04:03:17;;;;;;;15.73;9.17;;;;;;;11.42;62.14;64148.34;5031655;28;20194;-61
2023/03/21 04:05:45;;;;;;;16.40;9.63;;;;;;;11.09;62.70;64111.66;5031750;28;20246;-57
2023/03/21 04:08:12;;;;;;;13.68;8.25;;;;;;;11.28;62.69;64132.47;5031691;28;20190;-57
2023/03/21 04:10:38;;;;;;;14.13;8.80;;;;;;;11.08;62.37;64110.56;5031800;28;20234;-56
2023/03/21 04:13:03;;;;;;;12.23;7.30;;;;;;;11.07;62.11;64110.00;5031462;28;20252;-57
2023/03/21 04:15:29;;;;;;;13.07;8.40;;;;;;;11.17;62.36;64120.44;5031751;28;20206;-57
2023/03/21 04:17:55;;;;;;;11.10;7.47;;;;;;;11.20;61.92;64123.72;5031620;28;20664;-57
2023/03/21 04:20:20;;;;;;;10.07;7.30;;;;;;;11.16;61.46;64116.81;5031523;28;20285;-57
2023/03/21 04:22:47;;;;;;;12.30;8.17;;;;;;;11.15;63.05;64118.25;5031429;28;20236;-57
2023/03/21 04:25:13;;;;;;;12.20;8.03;;;;;;;11.28;63.86;64133.03;5031548;28;20309;-57
2023/03/21 04:27:38;;;;;;;14.57;8.60;;;;;;;11.40;63.20;64146.16;5031153;28;20256;-57
2023/03/21 04:30:06;;;;;;;12.50;8.50;;;;;;;11.51;62.12;64158.22;5031702;28;20222;-57
2023/03/21 04:32:32;;;;;;;9.77;7.33;;;;;;;11.55;62.63;64160.06;5013460;28;20194;-56
2023/03/21 04:34:59;;;;;;;13.83;8.07;;;;;;;11.55;62.79;64162.59;5031020;28;20275;-56
2023/03/21 04:37:26;;;;;;;13.40;8.27;;;;;;;11.51;62.51;64155.16;5030968;28;20659;-55
2023/03/21 04:39:52;;;;;;;14.03;8.27;;;;;;;11.52;62.00;64159.31;5030205;28;20748;-60
2023/03/21 04:42:18;;;;;;;16.00;9.20;;;;;;;11.42;62.42;64145.28;5031260;28;20239;-60
2023/03/21 04:44:45;;;;;;;20.63;9.30;;;;;;;11.53;62.20;64157.88;5031349;28;20297;-61
2023/03/21 04:47:12;;;;;;;17.02;10.20;;;;;;;11.40;63.11;64143.66;5031087;28;20189;-57
2023/03/21 04:49:37;;;;;;;19.17;8.77;;;;;;;11.47;61.63;64151.31;5013515;28;20258;-57
2023/03/21 04:52:03;;;;;;;21.67;9.90;;;;;;;11.42;62.52;64148.34;5031010;28;20684;-60
2023/03/21 04:54:29;;;;;;;19.60;9.90;;;;;;;11.39;62.24;64144.53;5031176;28;20237;-61
2023/03/21 04:56:54;;;;;;;20.97;8.80;;;;;;;11.30;62.39;64132.13;5031026;28;20270;-61
2023/03/21 04:59:20;;;;;;;15.20;9.20;;;;;;;11.37;62.30;64140.34;5030814;28;20648;-60
2023/03/21 05:01:46;;;;;;;20.50;9.00;;;;;;;11.43;62.08;64151.44;5031087;28;20231;-61
2023/03/21 05:04:13;;;;;;;15.43;8.63;;;;;;;11.54;62.21;64158.97;5030935;28;20221;-60
2023/03/21 05:06:41;;;;;;;19.45;10.55;;;;;;;11.62;61.24;64169.72;5029637;28;20759;-57
2023/03/21 05:09:07;;;;;;;17.27;9.30;;;;;;;11.53;61.71;64160.41;5031105;28;20241;-55
2023/03/21 05:11:36;;;;;;;17.87;8.37;;;;;;;11.48;62.07;64154.94;5012899;28;20555;-56
2023/03/21 05:14:03;;;;;;;15.47;7.60;;;;;;;11.47;61.97;64151.31;5030625;28;20222;-57
2023/03/21 05:16:29;;;;;;;17.47;8.63;;;;;;;11.34;63.18;64139.59;5030497;28;20255;-56
2023/03/21 05:18:57;;;;;;;22.23;9.13;;;;;;;11.37;63.09;64142.34;5030609;28;20225;-61
2023/03/21 05:21:24;;;;;;;21.23;9.07;;;;;;;11.47;63.55;64153.81;5030801;28;20270;-57
2023/03/21 05:23:53;;;;;;;16.30;9.27;;;;;;;11.71;62.52;64180.16;5030655;28;20759;-57
2023/03/21 05:26:20;;;;;;;21.17;9.80;;;;;;;11.78;62.01;64187.81;5030591;28;20690;-57
2023/03/21 05:28:46;;;;;;;19.03;9.87;;;;;;;11.73;61.57;64182.34;5012714;28;20198;-57
2023/03/21 05:31:16;;;;;;;24.70;9.40;;;;;;;11.72;61.93;64180.69;5030589;28;20201;-56
2023/03/21 05:33:46;;;;;;;17.73;9.30;;;;;;;11.67;62.79;64172.69;5030565;28;20254;-56
2023/03/21 05:36:17;;;;;;;19.08;8.90;;;;;;;11.75;61.96;64184.53;5030373;28;20263;-58
2023/03/21 05:38:45;;;;;;;20.03;9.60;;;;;;;11.76;61.63;64185.06;5030380;28;20221;-57
2023/03/21 05:41:12;;;;;;;16.07;7.83;;;;;;;11.86;61.28;64196.03;5030396;28;20208;-58
2023/03/21 05:43:38;;;;;;;16.80;8.23;;;;;;;11.91;60.51;64200.97;5030432;28;20189;-59
2023/03/21 05:46:03;;;;;;;19.40;8.83;;;;;;;11.79;60.96;64186.41;5030298;28;20194;-58
2023/03/21 05:48:29;;;;;;;15.90;8.63;;;;;;;11.79;61.48;64188.38;5030249;28;20190;-57
2023/03/21 05:50:55;;;;;;;22.23;8.80;;;;;;;12.03;61.47;64211.59;5031090;28;20205;-56
2023/03/21 05:53:21;;;;;;;17.27;8.70;;;;;;;12.02;61.07;64213.03;5015729;28;20648;-57
2023/03/21 05:55:46;;;;;;;20.13;9.17;;;;;;;11.80;60.78;64192.00;5033681;28;20217;-58
2023/03/21 05:58:12;;;;;;;17.47;8.83;;;;;;;11.65;61.37;64173.56;5033608;28;20206;-57
2023/03/21 06:00:37;;;;;;;18.70;8.77;;;;;;;11.66;61.59;64171.59;5033691;28;20720;-58
2023/03/21 06:03:03;;;;;;;33.50;9.00;;;;;;;11.61;61.50;64168.63;5033600;28;20628;-58
2023/03/21 06:05:28;;;;;;;22.50;9.37;;;;;;;11.46;61.19;64147.13;5041083;22;20629;-62
2023/03/21 06:07:54;;;;;;;24.10;8.93;;;;;;;11.49;61.80;64156.00;5033562;28;20248;-57
2023/03/21 06:10:19;;;;;;;24.50;9.23;;;;;;;11.79;61.71;64188.94;5033243;28;20260;-57
2023/03/21 06:12:45;;;;;;;31.30;10.70;;;;;;;12.00;60.93;64211.38;5033406;28;20190;-57
2023/03/21 06:15:11;;;;;;;19.90;10.17;;;;;;;12.15;60.39;64227.28;5033727;28;20249;-57
2023/03/21 06:17:36;;;;;;;18.20;8.17;;;;;;;12.15;59.54;64227.28;5033317;28;20197;-58
2023/03/21 06:20:06;;;;;;;23.63;9.30;;;;;;;12.17;60.03;64230.03;5033576;28;20815;-57
2023/03/21 06:22:33;;;;;;;31.10;9.10;;;;;;;12.25;59.15;64236.28;5015210;28;20650;-61
2023/03/21 06:24:58;;;;;;;19.93;8.80;;;;;;;12.41;58.54;64253.81;5033259;28;20260;-56
2023/03/21 06:27:24;;;;;;;20.27;8.20;;;;;;;12.39;59.31;64251.06;5033214;28;20252;-57
2023/03/21 06:29:50;;;;;;;13.10;7.90;;;;;;;12.56;59.71;64272.25;5033194;28;20206;-57
2023/03/21 06:32:16;;;;;;;19.77;8.50;;;;;;;12.49;59.73;64265.13;5033114;28;20278;-57
2023/03/21 06:34:42;;;;;;;13.57;8.10;;;;;;;12.71;60.96;64286.16;5033202;28;20324;-56
2023/03/21 06:37:07;;;;;;;12.93;7.78;;;;;;;12.77;60.61;64292.19;5033069;28;20656;-58
2023/03/21 06:39:33;;;;;;;15.23;8.63;;;;;;;12.96;60.23;64315.56;5033352;28;20241;-57
2023/03/21 06:41:59;;;;;;;20.30;7.88;;;;;;;13.12;59.37;64330.63;5032943;28;20660;-57
2023/03/21 06:44:25;;;;;;;17.30;8.00;;;;;;;13.20;60.71;64345.00;5033274;28;20214;-57
2023/03/21 06:46:52;;;;;;;16.63;7.43;;;;;;;13.41;60.57;64365.53;5015116;28;20574;-56
2023/03/21 06:49:18;;;;;;;24.30;8.77;;;;;;;13.56;59.94;64378.91;5033021;28;20228;-57
2023/03/21 06:51:44;;;;;;;17.63;8.82;;;;;;;13.63;59.22;64389.16;5033095;28;20297;-56
2023/03/21 06:54:10;;;;;;;21.02;7.70;;;;;;;13.76;72.86;64400.31;5032722;28;20296;-58
2023/03/21 06:56:36;;;;;;;13.10;6.95;;;;;;;14.17;76.42;64448.44;5032904;28;20273;-58
2023/03/21 06:59:02;;;;;;;16.15;8.18;;;;;;;14.54;67.67;64488.03;5015159;28;20254;-56
2023/03/21 07:01:29;;;;;;;13.32;8.13;;;;;;;14.99;67.08;64537.47;5032670;28;20221;-59
2023/03/21 07:03:56;;;;;;;13.48;9.00;;;;;;;15.32;63.14;64573.78;5032084;28;20260;-57
2023/03/21 07:06:22;;;;;;;14.52;7.95;;;;;;;16.14;60.64;64660.91;5032541;28;20204;-56
2023/03/21 07:08:47;;;;;;;21.63;8.13;;;;;;;16.36;60.10;64685.13;5032612;28;20269;-57
2023/03/21 07:11:12;;;;;;;13.55;7.32;;;;;;;16.67;60.88;64719.28;5032619;28;20178;-57
2023/03/21 07:13:38;;;;;;;15.00;7.88;;;;;;;17.26;54.96;64780.63;5032612;28;20198;-56
2023/03/21 07:16:04;;;;;;;18.00;7.72;;;;;;;17.45;51.31;64806.66;5032511;28;20190;-57
2023/03/21 07:18:30;;;;;;;15.57;8.13;;;;;;;17.57;54.91;64815.34;5014508;28;20432;-57
2023/03/21 07:20:56;;;;;;;15.38;8.95;;;;;;;17.93;51.97;64859.59;5032730;28;20660;-56
2023/03/21 07:23:24;;;;;;;16.30;8.82;;;;;;;17.97;50.94;64861.44;5032507;28;20694;-57
2023/03/21 07:25:58;;;;;;;17.42;9.85;;;;;;;18.15;51.41;64878.19;5032355;28;20210;-56
2023/03/21 07:28:24;;;;;;;16.52;11.20;;;;;;;17.70;46.39;64829.13;5014884;28;20694;-58
2023/03/21 07:30:55;;;;;;;24.55;11.77;;;;;;;17.12;46.78;64767.75;5032369;28;20245;-59
2023/03/21 07:33:22;;;;;;;22.95;12.52;;;;;;;16.17;48.34;64661.13;5032073;28;20251;-57
2023/03/21 07:35:49;;;;;;;23.30;13.70;;;;;;;15.84;50.23;64625.91;5032247;28;20252;-59
2023/03/21 07:38:16;;;;;;;23.52;14.43;;;;;;;15.68;52.03;64607.75;5032196;28;20226;-59
2023/03/21 07:40:42;;;;;;;21.77;13.23;;;;;;;15.39;52.37;64578.38;5032118;28;20218;-59
2023/03/21 07:43:08;;;;;;;28.00;14.57;;;;;;;15.29;53.93;64567.38;5032153;28;20652;-58
2023/03/21 07:45:33;;;;;;;26.27;13.77;;;;;;;15.17;54.98;64554.19;5014581;28;20221;-59
2023/03/21 07:47:59;;;;;;;25.58;15.32;;;;;;;15.19;55.13;64556.91;5032242;28;20205;-61
2023/03/21 07:50:25;;;;;;;27.17;15.48;;;;;;;15.09;55.73;64546.47;5032396;28;20691;-59
2023/03/21 07:52:50;;;;;;;26.08;15.80;;;;;;;15.01;55.79;64537.13;5031993;28;20193;-61
2023/03/21 07:55:16;;;;;;;30.05;15.00;;;;;;;15.04;55.55;64540.44;5032263;28;20210;-61
2023/03/21 07:57:42;;;;;;;30.02;15.27;;;;;;;14.94;55.96;64529.44;5013991;28;20182;-59
2023/03/21 08:00:08;;;;;;;29.15;15.68;;;;;;;14.64;54.52;64493.94;5031969;28;20210;-59
2023/03/21 08:02:33;;;;;;;28.92;15.32;;;;;;;14.72;54.69;64505.25;5030296;28;20200;-60
2023/03/21 08:04:59;;;;;;;23.58;14.15;;;;;;;14.65;54.48;64500.09;5013763;28;20218;-62
2023/03/21 08:07:26;;;;;;;25.50;14.35;;;;;;;14.49;54.78;64482.50;5031799;28;20182;-59
2023/03/21 08:09:51;;;;;;;25.08;14.60;;;;;;;14.41;54.33;64468.66;5032042;28;20224;-61
2023/03/21 08:12:17;;;;;;;22.00;13.43;;;;;;;14.03;54.30;64433.06;5032047;28;20186;-58
2023/03/21 08:14:42;;;;;;;26.88;15.07;;;;;;;13.97;54.79;64423.94;5030800;28;20726;-59
2023/03/21 08:17:08;;;;;;;23.75;13.57;;;;;;;14.37;53.50;64469.34;5031690;28;20186;-60
2023/03/21 08:19:34;;;;;;;23.52;14.60;;;;;;;14.32;53.34;64464.94;5031559;28;20233;-59
2023/03/21 08:22:00;;;;;;;27.40;15.05;;;;;;;14.34;54.03;64464.06;5031510;28;20690;-58
2023/03/21 08:24:27;;;;;;;35.72;17.30;;;;;;;14.39;54.91;64467.00;5031571;28;20214;-58
2023/03/21 08:26:53;;;;;;;31.00;15.38;;;;;;;14.57;55.12;64488.78;5031504;28;20565;-62
2023/03/21 08:29:20;;;;;;;31.92;16.98;;;;;;;14.56;54.85;64488.25;5031560;28;20283;-56
2023/03/21 08:31:46;;;;;;;31.42;16.92;;;;;;;14.55;54.63;64487.13;5031191;28;20194;-57
2023/03/21 08:34:12;;;;;;;38.88;16.83;;;;;;;14.64;55.04;64496.47;5031293;28;20276;-59
2023/03/21 08:36:38;;;;;;;34.92;18.00;;;;;;;14.75;54.05;64506.00;5031242;28;20248;-59
2023/03/21 08:39:04;;;;;;;32.20;18.75;;;;;;;14.86;53.71;64523.75;5031284;28;20598;-57
2023/03/21 08:41:37;;;;;;;28.25;17.67;;;;;;;14.84;53.83;64519.00;5031154;28;20198;-57
2023/03/21 08:44:05;;;;;;;34.00;17.58;;;;;;;14.68;53.02;64500.88;5031249;28;20210;-59
2023/03/21 08:46:31;;;;;;;30.58;18.08;;;;;;;14.72;52.83;64507.81;5029815;28;20193;-63
2023/03/21 08:48:56;;;;;;;39.60;18.20;;;;;;;15.05;51.78;64542.09;5013333;28;20636;-57
2023/03/21 08:51:22;;;;;;;32.22;17.17;;;;;;;14.98;51.80;64536.94;5031047;28;20190;-56
2023/03/21 08:53:50;;;;;;;35.75;17.65;;;;;;;14.82;52.90;64519.34;5030869;28;20692;-60
2023/03/21 08:56:16;;;;;;;29.80;16.48;;;;;;;14.75;52.31;64511.09;5031055;28;20787;-62
2023/03/21 08:58:43;;;;;;;35.00;15.90;;;;;;;14.78;52.45;64511.84;5030676;28;20293;-61
2023/03/21 09:01:10;;;;;;;30.35;16.60;;;;;;;14.84;53.39;64518.44;5030919;28;20269;-62
2023/03/21 09:03:37;;;;;;;37.15;16.70;;;;;;;15.00;52.89;64536.03;5030864;28;20248;-61
2023/03/21 09:06:03;;;;;;;29.17;16.42;;;;;;;15.06;52.91;64540.66;5030702;28;20186;-61
2023/03/21 09:08:28;;;;;;;34.25;16.27;;;;;;;15.23;52.87;64563.31;5030706;28;20194;-62
2023/03/21 09:10:55;;;;;;;30.48;16.48;;;;;;;15.34;52.46;64572.88;5030630;28;20198;-57
2023/03/21 09:13:21;;;;;;;29.67;15.57;;;;;;;15.35;52.23;64571.97;5030563;28;20194;-57
2023/03/21 09:15:46;;;;;;;27.73;15.40;;;;;;;15.47;51.42;64589.75;5030668;28;20216;-58
2023/03/21 09:18:14;;;;;;;26.25;15.32;;;;;;;15.47;51.58;64587.19;5030287;28;20292;-59
2023/03/21 09:20:42;;;;;;;29.15;16.48;;;;;;;15.58;51.13;64599.28;5030429;28;20214;-58
2023/03/21 09:23:09;;;;;;;33.10;15.52;;;;;;;15.56;50.56;64597.09;5030453;28;20189;-61
2023/03/21 09:25:36;;;;;;;26.80;15.00;;;;;;;15.67;50.07;64609.19;5030280;28;20234;-62
2023/03/21 09:28:03;;;;;;;25.63;15.48;;;;;;;15.69;50.60;64611.41;5030513;28;20186;-58
2023/03/21 09:30:31;;;;;;;33.83;17.15;;;;;;;15.73;49.30;64615.81;5030367;28;20220;-58
2023/03/21 09:33:02;;;;;;;28.00;15.95;;;;;;;15.63;50.04;64605.34;5030206;28;20235;-58
2023/03/21 09:35:28;;;;;;;32.75;15.57;;;;;;;15.87;50.43;64633.75;5030169;28;20214;-62
2023/03/21 09:37:57;;;;;;;29.38;16.77;;;;;;;16.07;49.86;64653.22;5030015;28;20268;-61
2023/03/21 09:40:26;;;;;;;33.25;17.77;;;;;;;16.19;48.70;64665.84;5030366;28;20214;-61
2023/03/21 09:42:54;;;;;;;41.50;16.40;;;;;;;16.31;47.49;64679.06;5030184;28;20992;-61
2023/03/21 09:45:34;;;;;;;32.03;16.52;;;;;;;16.16;48.06;64660.03;5030415;28;20218;-58
2023/03/21 09:48:01;;;;;;;26.48;15.23;;;;;;;16.22;49.71;64669.19;5030240;28;20236;-57
2023/03/21 09:50:36;;;;;;;30.13;15.50;;;;;;;16.49;49.82;64698.91;5030366;28;20218;-59
2023/03/21 09:53:25;;;;;;;29.33;15.75;;;;;;;16.59;49.82;64707.94;5030167;28;20276;-58
2023/03/21 09:55:52;;;;;;;26.17;15.32;;;;;;;16.62;48.44;64716.31;5030180;28;20214;-57
2023/03/21 09:58:40;;;;;;;30.42;14.80;;;;;;;16.79;47.78;64732.50;5030438;28;20339;-60
2023/03/21 10:01:21;;;;;;;29.58;15.15;;;;;;;16.86;47.38;64737.13;5030493;28;20206;-60
2023/03/21 10:03:49;;;;;;;27.65;16.02;;;;;;;16.94;47.67;64751.00;5030386;28;20190;-61
2023/03/21 10:06:15;;;;;;;26.00;16.08;;;;;;;16.87;47.36;64740.75;5030032;28;20555;-60
2023/03/21 10:08:45;;;;;;;25.77;15.35;;;;;;;17.06;47.02;64758.59;5030039;28;20186;-59
2023/03/21 10:11:23;;;;;;;28.50;14.50;;;;;;;17.11;46.71;64766.66;5030144;28;20197;-57
2023/03/21 10:14:03;;;;;;;24.83;14.65;;;;;;;17.41;46.39;64799.69;5030276;28;20545;-58
2023/03/21 10:16:59;;;;;;;28.52;16.02;;;;;;;17.83;45.52;64846.00;5012317;28;20194;-57
2023/03/21 10:19:27;;;;;;;29.63;15.73;;;;;;;18.16;45.91;64882.38;4995346;28;20277;-59
2023/03/21 10:21:52;;;;;;;34.15;15.40;;;;;;;18.36;45.02;64901.88;5029950;28;20186;-59
2023/03/21 10:24:21;;;;;;;26.65;15.18;;;;;;;18.47;44.24;64915.50;5030324;28;20687;-59
2023/03/21 10:26:50;;;;;;;27.80;15.95;;;;;;;18.27;43.75;64893.97;5030003;28;20266;-61
2023/03/21 10:29:21;;;;;;;30.95;14.02;;;;;;;18.85;44.00;64954.84;5012289;28;20309;-58
2023/03/21 10:31:49;;;;;;;27.63;16.58;;;;;;;19.21;42.81;64994.59;5029596;28;20178;-58
2023/03/21 10:34:27;;;;;;;23.38;14.35;;;;;;;19.59;41.50;65036.56;5029970;28;20222;-61
2023/03/21 10:36:53;;;;;;;23.63;14.40;;;;;;;19.27;41.02;65003.75;5029852;28;20221;-56
2023/03/21 10:39:21;;;;;;;27.88;14.05;;;;;;;19.54;41.30;65033.03;5032767;28;20245;-58
2023/03/21 10:41:46;;;;;;;20.92;14.27;;;;;;;19.63;40.45;65043.00;5031805;28;20682;-57
2023/03/21 10:44:15;;;;;;;26.55;15.00;;;;;;;19.63;41.45;65040.44;5032896;28;20296;-58
2023/03/21 10:46:51;;;;;;;24.48;12.85;;;;;;;19.56;40.24;65033.25;5032971;28;20655;-57
2023/03/21 10:49:17;;;;;;;26.05;12.82;;;;;;;19.57;40.59;65033.81;5040388;22;20218;-57
2023/03/21 10:51:45;;;;;;;23.85;12.80;;;;;;;19.43;39.68;65015.78;5032877;28;20644;-57
2023/03/21 10:54:17;;;;;;;21.02;12.65;;;;;;;19.16;40.21;64989.63;5032589;28;20230;-61
2023/03/21 10:56:51;;;;;;;17.10;11.40;;;;;;;19.25;39.37;64999.00;5032722;28;20285;-60
2023/03/21 10:59:21;;;;;;;19.50;11.45;;;;;;;19.11;39.32;64983.53;5032822;28;20214;-62
2023/03/21 11:01:51;;;;;;;17.50;11.10;;;;;;;19.06;40.10;64980.59;5032767;28;20183;-61
2023/03/21 11:04:25;;;;;;;15.30;9.73;;;;;;;18.74;39.55;64943.28;5032849;28;20248;-57
2023/03/21 11:06:58;;;;;;;23.55;10.60;;;;;;;18.76;39.36;64944.94;5032920;28;20240;-58
2023/03/21 11:09:41;;;;;;;17.10;10.20;;;;;;;18.18;40.10;64882.03;5032437;28;20214;-58
2023/03/21 11:12:15;;;;;;;14.65;9.38;;;;;;;18.59;39.88;64929.28;5032685;28;20186;-56
2023/03/21 11:14:49;;;;;;;18.33;9.38;;;;;;;18.99;39.96;64970.31;5032433;28;20289;-62
2023/03/21 11:17:15;;;;;;;12.73;8.38;;;;;;;19.11;39.44;64986.09;5032490;28;20189;-62
2023/03/21 11:19:45;;;;;;;13.90;8.25;;;;;;;18.97;38.56;64968.09;5032706;28;20226;-57
2023/03/21 11:22:11;;;;;;;12.73;7.55;;;;;;;18.79;39.00;64948.22;5032318;28;20186;-58
2023/03/21 11:24:38;;;;;;;10.32;6.55;;;;;;;18.99;38.89;64970.84;5014315;28;20700;-57
2023/03/21 11:27:07;;;;;;;13.75;6.78;;;;;;;18.52;38.39;64918.47;5032290;28;20194;-57
2023/03/21 11:29:44;;;;;;;8.25;6.45;;;;;;;19.01;38.15;64972.50;5032285;28;20217;-57